Shefford, Canada
Current Conditions -  °F | °C
As of 9:35 AM on Friday 24 Oct 2014 (Local Time) from KEFK Reporting Station
Unknown Precip Unknown Precip  
Wind Chill: 36°   Ceiling: 700
Heat Index: 42°   Visibility: 2.5mi
Dew Point: 40°   Wind: 8mph
Humidity: 96%   Direction: 330°NNW
Pressure: 29.82"   Gusts: NA
Location:  45.42°N, 72.58°W
Report Text: KEFK 241335Z AUTO 33007KT 2 1/2SM UP BKN007 OVC013 05/05 A2982 RMK AO2 T00530047
Loading
Personal Weather Stations






























Interactive Weather Map New forecast layout! Learn more

10-Day Weather Forecast

Advertisements
Track Severe Weather on mobile